Time;durP1;ratioP1;P1;durP2;ratioP2;P2;SDS_P1;SDS_P2;PMS_P1;PMS_P2;Temp;Humidity;BMP_temperature;BMP_pressure;BME280_temperature;BME280_humidity;BME280_pressure;Samples;Min_cycle;Max_cycle;Signal;HPM_P1;HPM_P2
2021/12/05 00:22:52;;;;;;;21.30;11.93;;;;;;;;;;2044387;29;20191;-62
2021/12/05 00:24:01;;;;;;;16.87;11.90;;;;;;;;;;2044773;29;20211;-62
2021/12/05 00:25:05;;;;;;;17.17;13.07;;;;;;;;;;2033997;29;20188;-61
2021/12/05 00:26:08;;;;;;;16.93;13.30;;;;;;;;;;2033602;29;20192;-64
2021/12/05 00:27:16;;;;;;;18.90;13.60;;;;;;;;;;2026042;29;20189;-66
2021/12/05 00:33:12;;;;;;;17.73;14.13;;;;;;;;;;2025377;29;20296;-63
2021/12/05 00:48:42;;;;;;;23.33;16.50;;;;;;;;;;2043815;29;20180;-63
2021/12/05 00:55:46;;;;;;;28.53;18.80;;;;;;;;;;2033033;29;20180;-62
2021/12/05 00:57:37;;;;;;;27.13;17.87;;;;;;;;;;2032819;29;20199;-58
2021/12/05 01:01:02;;;;;;;24.67;17.80;;;;;;;;;;2038822;29;20263;-63
2021/12/05 01:02:18;;;;;;;26.67;17.90;;;;;;;;;;2037152;29;20258;-62
2021/12/05 01:04:57;;;;;;;30.47;18.53;;;;;;;;;;2034249;29;20160;-61
2021/12/05 01:06:30;;;;;;;30.30;19.53;;;;;;;;;;2047966;29;20178;-61
2021/12/05 01:09:53;;;;;;;32.73;20.77;;;;;;;;;;2046525;29;20253;-62
2021/12/05 01:12:19;;;;;;;37.77;19.13;;;;;;;;;;2055622;28;20201;-60
2021/12/05 01:15:55;;;;;;;38.00;20.67;;;;;;;;;;2056203;28;20230;-63
2021/12/05 01:16:55;;;;;;;32.00;20.57;;;;;;;;;;2049227;28;20632;-63
2021/12/05 01:18:04;;;;;;;30.00;21.40;;;;;;;;;;2040585;29;20211;-63
2021/12/05 01:19:07;;;;;;;31.20;21.33;;;;;;;;;;2036538;29;20191;-62
2021/12/05 01:20:12;;;;;;;33.67;21.80;;;;;;;;;;2039531;29;20203;-65
2021/12/05 01:21:16;;;;;;;30.07;20.97;;;;;;;;;;2041166;29;20214;-63
2021/12/05 01:22:19;;;;;;;35.00;22.50;;;;;;;;;;2033534;29;20228;-62
2021/12/05 01:23:38;;;;;;;35.47;21.77;;;;;;;;;;2034609;29;20300;-63
2021/12/05 01:26:08;;;;;;;32.50;20.03;;;;;;;;;;2035838;29;20180;-63
2021/12/05 01:31:17;;;;;;;33.77;21.40;;;;;;;;;;2037480;29;20187;-60
2021/12/05 01:32:39;;;;;;;26.57;17.50;;;;;;;;;;2043688;29;20183;-62
2021/12/05 01:33:59;;;;;;;30.43;19.47;;;;;;;;;;2044952;29;20274;-62
2021/12/05 01:36:12;;;;;;;30.77;20.50;;;;;;;;;;2040557;29;20296;-60
2021/12/05 01:41:36;;;;;;;27.10;19.77;;;;;;;;;;2028336;29;20180;-63
2021/12/05 01:44:36;;;;;;;30.00;19.70;;;;;;;;;;2016519;29;20673;-61
2021/12/05 01:48:08;;;;;;;32.30;20.03;;;;;;;;;;2049097;29;20273;-63
2021/12/05 01:49:38;;;;;;;29.23;18.63;;;;;;;;;;2040392;29;20297;-61
2021/12/05 01:50:59;;;;;;;26.03;19.70;;;;;;;;;;2040806;29;20174;-61
2021/12/05 01:54:55;;;;;;;24.43;19.03;;;;;;;;;;2049402;29;20187;-61
2021/12/05 01:56:33;;;;;;;26.23;16.57;;;;;;;;;;2038254;29;20171;-63
2021/12/05 02:00:54;;;;;;;26.97;20.17;;;;;;;;;;2048968;29;20194;-61
2021/12/05 02:01:47;;;;;;;29.90;19.63;;;;;;;;;;2043692;29;20179;-61
2021/12/05 02:08:33;;;;;;;24.13;17.17;;;;;;;;;;2043013;29;20231;-65
2021/12/05 02:10:53;;;;;;;27.40;17.37;;;;;;;;;;2034698;29;20172;-65
2021/12/05 02:29:40;;;;;;;16.63;13.40;;;;;;;;;;2043464;29;20178;-63
2021/12/05 02:39:16;;;;;;;17.40;10.30;;;;;;;;;;2045163;29;20186;-62
2021/12/05 02:41:22;;;;;;;19.17;10.20;;;;;;;;;;2041121;29;20532;-63
2021/12/05 02:42:31;;;;;;;16.90;9.23;;;;;;;;;;2048784;29;20593;-63
2021/12/05 02:43:42;;;;;;;14.43;9.97;;;;;;;;;;2048888;29;20182;-64
2021/12/05 02:44:45;;;;;;;15.07;9.47;;;;;;;;;;2049000;28;20222;-63
2021/12/05 02:45:47;;;;;;;14.50;9.27;;;;;;;;;;2040079;29;20228;-62
2021/12/05 02:46:50;;;;;;;14.23;8.80;;;;;;;;;;2040634;29;20179;-64
2021/12/05 02:47:53;;;;;;;15.57;9.13;;;;;;;;;;2055546;28;20922;-63
2021/12/05 02:48:58;;;;;;;14.27;8.90;;;;;;;;;;2055135;28;20209;-63
2021/12/05 02:49:59;;;;;;;18.13;8.47;;;;;;;;;;2056871;28;20557;-66
2021/12/05 02:51:01;;;;;;;11.77;8.83;;;;;;;;;;2049016;29;20190;-61
2021/12/05 02:52:06;;;;;;;16.77;8.53;;;;;;;;;;2034478;29;20206;-63
2021/12/05 02:53:16;;;;;;;15.27;9.07;;;;;;;;;;2034087;29;20235;-62
2021/12/05 02:54:18;;;;;;;12.27;9.07;;;;;;;;;;2033712;29;20184;-63
2021/12/05 02:55:25;;;;;;;13.70;8.27;;;;;;;;;;2033401;29;20637;-63
2021/12/05 02:56:26;;;;;;;13.23;8.23;;;;;;;;;;2026355;29;20182;-62
2021/12/05 02:58:02;;;;;;;14.10;7.90;;;;;;;;;;2033778;29;20184;-66
2021/12/05 02:58:59;;;;;;;10.70;7.27;;;;;;;;;;2031161;29;20263;-63
2021/12/05 03:00:07;;;;;;;13.93;7.97;;;;;;;;;;2033232;29;20606;-63
2021/12/05 03:02:13;;;;;;;11.53;7.13;;;;;;;;;;2050048;28;20184;-62
2021/12/05 03:03:20;;;;;;;11.47;7.10;;;;;;;;;;2055080;28;20831;-61
2021/12/05 03:04:23;;;;;;;16.00;7.33;;;;;;;;;;2057328;28;20887;-62
2021/12/05 03:05:24;;;;;;;10.90;7.37;;;;;;;;;;2050348;29;20179;-63
2021/12/05 03:06:27;;;;;;;12.77;7.30;;;;;;;;;;2042072;29;20262;-63
2021/12/05 03:07:37;;;;;;;16.83;7.47;;;;;;;;;;2042667;29;20207;-63
2021/12/05 03:08:38;;;;;;;14.03;7.90;;;;;;;;;;2041994;29;20176;-63
2021/12/05 03:09:40;;;;;;;14.87;8.13;;;;;;;;;;2042128;29;20215;-62
2021/12/05 03:10:40;;;;;;;11.97;7.37;;;;;;;;;;2049989;29;20163;-61
2021/12/05 03:11:42;;;;;;;11.00;7.17;;;;;;;;;;2050357;28;20262;-62
2021/12/05 03:12:45;;;;;;;16.00;7.73;;;;;;;;;;2050569;29;20197;-62
2021/12/05 03:13:46;;;;;;;15.03;7.80;;;;;;;;;;2050097;28;20175;-63
2021/12/05 03:14:47;;;;;;;14.70;8.83;;;;;;;;;;2042562;29;20168;-62
2021/12/05 03:15:48;;;;;;;15.63;7.73;;;;;;;;;;2051743;28;20738;-63
2021/12/05 03:16:48;;;;;;;11.73;7.07;;;;;;;;;;2057056;28;20182;-63
2021/12/05 03:17:49;;;;;;;12.73;6.87;;;;;;;;;;2053487;28;20260;-64
2021/12/05 03:18:50;;;;;;;12.30;7.47;;;;;;;;;;2048415;29;20179;-65
2021/12/05 03:19:51;;;;;;;14.73;8.27;;;;;;;;;;2040072;29;20206;-63
2021/12/05 03:20:52;;;;;;;11.17;7.87;;;;;;;;;;2048152;29;20206;-65
2021/12/05 03:21:52;;;;;;;13.30;7.43;;;;;;;;;;2048328;29;20194;-63
2021/12/05 03:22:57;;;;;;;10.60;7.63;;;;;;;;;;2039750;29;20212;-62
2021/12/05 03:23:58;;;;;;;11.90;7.07;;;;;;;;;;2040259;29;20214;-63
2021/12/05 03:24:59;;;;;;;13.40;7.57;;;;;;;;;;2039839;29;20191;-64
2021/12/05 03:25:59;;;;;;;15.13;7.40;;;;;;;;;;2040126;29;20214;-61
2021/12/05 03:27:00;;;;;;;10.10;7.00;;;;;;;;;;2041635;29;20190;-63
2021/12/05 03:28:01;;;;;;;16.33;7.73;;;;;;;;;;2039824;29;20199;-66
2021/12/05 03:29:04;;;;;;;12.27;7.13;;;;;;;;;;2032640;29;20199;-64
2021/12/05 03:30:04;;;;;;;13.33;7.33;;;;;;;;;;2055225;28;20334;-63
2021/12/05 03:31:08;;;;;;;10.87;6.60;;;;;;;;;;2047328;28;20323;-65
2021/12/05 03:32:08;;;;;;;11.60;7.17;;;;;;;;;;2048512;28;20167;-64
2021/12/05 03:33:09;;;;;;;12.43;7.40;;;;;;;;;;2073745;23;20214;-55
2021/12/05 03:34:11;;;;;;;15.43;7.20;;;;;;;;;;2070816;28;20291;-56
2021/12/05 03:35:12;;;;;;;11.13;7.17;;;;;;;;;;2057672;28;20186;-54
2021/12/05 03:36:13;;;;;;;12.03;7.57;;;;;;;;;;2063972;28;20665;-56
2021/12/05 03:37:14;;;;;;;10.53;7.83;;;;;;;;;;2065811;28;20173;-57
2021/12/05 03:38:15;;;;;;;14.97;8.17;;;;;;;;;;2063795;28;20272;-52
2021/12/05 03:39:16;;;;;;;16.27;8.63;;;;;;;;;;2063559;28;20204;-52
2021/12/05 03:40:19;;;;;;;13.87;7.60;;;;;;;;;;2064108;28;20216;-55
2021/12/05 03:41:19;;;;;;;11.03;8.00;;;;;;;;;;2056079;28;20163;-52
2021/12/05 03:42:22;;;;;;;13.80;8.47;;;;;;;;;;2054365;28;20174;-55
2021/12/05 03:43:22;;;;;;;9.97;7.53;;;;;;;;;;2060074;28;20218;-55
2021/12/05 03:44:24;;;;;;;14.33;8.60;;;;;;;;;;2055004;28;20226;-53
2021/12/05 03:45:28;;;;;;;14.13;8.80;;;;;;;;;;2065404;28;20733;-55
2021/12/05 03:46:28;;;;;;;12.17;8.07;;;;;;;;;;2060543;28;20178;-53
2021/12/05 03:47:30;;;;;;;15.53;8.03;;;;;;;;;;2057013;28;20268;-57
2021/12/05 03:48:34;;;;;;;16.93;9.07;;;;;;;;;;2059653;28;20177;-52
2021/12/05 03:49:34;;;;;;;14.87;9.03;;;;;;;;;;2060113;28;20171;-53
2021/12/05 03:50:36;;;;;;;14.57;8.90;;;;;;;;;;2056122;28;20181;-51
2021/12/05 03:51:39;;;;;;;15.37;8.97;;;;;;;;;;2058721;28;20182;-51
2021/12/05 03:52:40;;;;;;;14.53;8.70;;;;;;;;;;2056233;28;20166;-52
2021/12/05 03:53:40;;;;;;;16.23;8.83;;;;;;;;;;2060698;28;20193;-52
2021/12/05 03:54:41;;;;;;;14.83;8.00;;;;;;;;;;2063942;28;20181;-56
2021/12/05 03:55:42;;;;;;;13.03;9.27;;;;;;;;;;2060399;28;20170;-52
2021/12/05 03:56:43;;;;;;;13.40;8.60;;;;;;;;;;2064194;28;20205;-56
2021/12/05 03:57:46;;;;;;;16.37;8.87;;;;;;;;;;2065210;28;20180;-52
2021/12/05 03:58:48;;;;;;;13.07;8.43;;;;;;;;;;2055769;28;20170;-52
2021/12/05 03:59:48;;;;;;;14.13;8.77;;;;;;;;;;2064594;28;20181;-53
2021/12/05 04:00:50;;;;;;;12.53;8.20;;;;;;;;;;2066249;28;20177;-54
2021/12/05 04:01:51;;;;;;;11.77;8.80;;;;;;;;;;2058874;28;20220;-51
2021/12/05 04:02:53;;;;;;;16.03;8.70;;;;;;;;;;2055698;28;20194;-55
2021/12/05 04:03:57;;;;;;;13.70;8.23;;;;;;;;;;2066694;28;20197;-51
2021/12/05 04:04:58;;;;;;;10.60;8.90;;;;;;;;;;2074168;28;20180;-53
2021/12/05 04:06:00;;;;;;;12.27;8.43;;;;;;;;;;2065772;28;20177;-53
2021/12/05 04:07:04;;;;;;;15.73;9.03;;;;;;;;;;2058736;28;20246;-55
2021/12/05 04:08:07;;;;;;;17.07;10.30;;;;;;;;;;2058335;28;20241;-53
2021/12/05 04:09:09;;;;;;;12.90;9.80;;;;;;;;;;2058253;28;20170;-54
2021/12/05 04:10:09;;;;;;;9.93;8.50;;;;;;;;;;2060415;28;20174;-52
2021/12/05 04:11:12;;;;;;;16.97;9.43;;;;;;;;;;2052754;28;20167;-53
2021/12/05 04:12:16;;;;;;;10.73;8.53;;;;;;;;;;2058095;28;20171;-54
2021/12/05 04:13:16;;;;;;;14.73;9.37;;;;;;;;;;2052679;28;20190;-54
2021/12/05 04:14:18;;;;;;;15.00;9.30;;;;;;;;;;2059207;28;20655;-55
2021/12/05 04:15:22;;;;;;;17.63;9.70;;;;;;;;;;2058528;28;20175;-54
2021/12/05 04:16:25;;;;;;;18.43;8.60;;;;;;;;;;2056509;28;20182;-55
2021/12/05 04:17:27;;;;;;;14.13;8.60;;;;;;;;;;2053793;28;20242;-54
2021/12/05 04:18:30;;;;;;;14.53;8.60;;;;;;;;;;2064212;28;20173;-53
2021/12/05 04:19:34;;;;;;;15.80;8.40;;;;;;;;;;2065884;28;20197;-53
2021/12/05 04:20:35;;;;;;;14.00;7.97;;;;;;;;;;2055634;28;20725;-52
2021/12/05 04:21:38;;;;;;;12.60;8.90;;;;;;;;;;2062096;28;20662;-54
2021/12/05 04:22:42;;;;;;;18.40;9.13;;;;;;;;;;2065583;28;20682;-53
2021/12/05 04:23:45;;;;;;;20.27;9.30;;;;;;;;;;2058515;28;20195;-53
2021/12/05 04:24:48;;;;;;;15.60;9.10;;;;;;;;;;2055007;28;20174;-54
2021/12/05 04:25:51;;;;;;;14.67;9.40;;;;;;;;;;2057353;28;20597;-54
2021/12/05 04:26:52;;;;;;;15.83;9.20;;;;;;;;;;2058574;28;20289;-54
2021/12/05 04:27:54;;;;;;;15.00;8.90;;;;;;;;;;2066001;28;20276;-54
2021/12/05 04:28:55;;;;;;;14.00;8.20;;;;;;;;;;2057614;28;20190;-54
2021/12/05 04:29:56;;;;;;;12.50;7.67;;;;;;;;;;2065316;28;20173;-51
2021/12/05 04:30:57;;;;;;;16.53;8.80;;;;;;;;;;2066869;28;20186;-55
2021/12/05 04:31:58;;;;;;;16.33;8.33;;;;;;;;;;2058942;28;20556;-53
2021/12/05 04:32:58;;;;;;;15.00;8.60;;;;;;;;;;2064948;28;20204;-55
2021/12/05 04:33:59;;;;;;;11.97;8.47;;;;;;;;;;2065335;28;20209;-54
2021/12/05 04:35:00;;;;;;;14.60;8.23;;;;;;;;;;2066637;28;20173;-54
2021/12/05 04:36:05;;;;;;;13.97;8.67;;;;;;;;;;2058709;28;20211;-56
2021/12/05 04:37:05;;;;;;;14.87;8.60;;;;;;;;;;2066953;28;20291;-53
2021/12/05 04:38:07;;;;;;;22.20;9.70;;;;;;;;;;2064369;28;20175;-54
2021/12/05 04:39:08;;;;;;;14.27;7.93;;;;;;;;;;2067435;28;20185;-56
2021/12/05 04:40:09;;;;;;;17.43;9.17;;;;;;;;;;2067549;28;20216;-55
2021/12/05 04:41:10;;;;;;;15.67;8.73;;;;;;;;;;2075451;28;20181;-52
2021/12/05 04:42:10;;;;;;;13.87;7.40;;;;;;;;;;2068026;28;20174;-55
2021/12/05 04:43:10;;;;;;;12.40;8.10;;;;;;;;;;2060711;28;20181;-54
2021/12/05 04:44:12;;;;;;;16.33;8.70;;;;;;;;;;2060867;28;20184;-56
2021/12/05 04:45:20;;;;;;;20.70;8.57;;;;;;;;;;2067100;28;20170;-53
2021/12/05 04:46:25;;;;;;;15.00;8.73;;;;;;;;;;2067386;28;20173;-51
2021/12/05 04:47:27;;;;;;;16.90;8.03;;;;;;;;;;2065878;28;20185;-54
2021/12/05 04:48:28;;;;;;;11.00;7.93;;;;;;;;;;2066749;28;20255;-53
2021/12/05 04:49:28;;;;;;;13.70;8.27;;;;;;;;;;2065099;28;20165;-52
2021/12/05 04:50:30;;;;;;;11.63;7.87;;;;;;;;;;2056382;28;20190;-55
2021/12/05 04:51:32;;;;;;;12.47;7.93;;;;;;;;;;2059834;28;20650;-54
2021/12/05 04:52:32;;;;;;;14.50;8.70;;;;;;;;;;2060925;28;20785;-54
2021/12/05 04:53:33;;;;;;;15.63;8.23;;;;;;;;;;2058663;28;20194;-55
2021/12/05 04:54:33;;;;;;;11.73;8.50;;;;;;;;;;2052208;29;20171;-55
2021/12/05 04:55:34;;;;;;;12.83;8.20;;;;;;;;;;2052788;28;20199;-57
2021/12/05 04:56:34;;;;;;;18.37;8.50;;;;;;;;;;2060553;28;20190;-53
2021/12/05 04:57:37;;;;;;;16.93;8.37;;;;;;;;;;2064901;28;20216;-55
2021/12/05 04:58:38;;;;;;;20.27;8.97;;;;;;;;;;2070190;28;20228;-55
2021/12/05 04:59:45;;;;;;;10.80;8.50;;;;;;;;;;2059319;28;20178;-55
2021/12/05 05:00:47;;;;;;;11.20;8.10;;;;;;;;;;2061930;28;20193;-55
2021/12/05 05:01:49;;;;;;;23.63;9.73;;;;;;;;;;2068945;28;20237;-53
2021/12/05 05:02:49;;;;;;;15.23;8.10;;;;;;;;;;2076987;28;20669;-54
2021/12/05 05:03:51;;;;;;;12.47;8.03;;;;;;;;;;2075991;28;20212;-56
2021/12/05 05:04:51;;;;;;;14.80;8.47;;;;;;;;;;2077634;28;20252;-54
2021/12/05 05:06:00;;;;;;;16.30;7.73;;;;;;;;;;2076127;28;20193;-55
2021/12/05 05:07:03;;;;;;;14.57;7.40;;;;;;;;;;2077510;28;20314;-55
2021/12/05 05:08:03;;;;;;;15.13;8.27;;;;;;;;;;2074350;28;20205;-51
2021/12/05 05:09:03;;;;;;;18.30;8.33;;;;;;;;;;2074537;28;20238;-55
2021/12/05 05:10:06;;;;;;;16.97;9.10;;;;;;;;;;2074565;28;20180;-52
2021/12/05 05:11:08;;;;;;;14.77;8.60;;;;;;;;;;2071910;28;20181;-56
2021/12/05 05:12:08;;;;;;;12.83;8.73;;;;;;;;;;2064809;28;20605;-57
2021/12/05 05:13:09;;;;;;;13.57;8.40;;;;;;;;;;2065212;28;20277;-54
2021/12/05 05:14:09;;;;;;;15.20;8.23;;;;;;;;;;2073964;28;20643;-57
2021/12/05 05:15:11;;;;;;;12.43;7.80;;;;;;;;;;2073597;28;20204;-54
2021/12/05 05:16:14;;;;;;;12.90;7.60;;;;;;;;;;2074363;28;20246;-55
2021/12/05 05:17:15;;;;;;;13.00;7.93;;;;;;;;;;2064881;28;20169;-57
2021/12/05 05:18:15;;;;;;;15.60;8.60;;;;;;;;;;2064955;28;20162;-54
2021/12/05 05:19:18;;;;;;;11.80;8.03;;;;;;;;;;2073171;28;20220;-56
2021/12/05 05:20:32;;;;;;;14.67;8.00;;;;;;;;;;2073458;28;20668;-51
2021/12/05 05:30:38;;;;;;;15.03;7.47;;;;;;;;;;2047831;29;20679;-55
2021/12/05 05:39:43;;;;;;;15.53;7.37;;;;;;;;;;2073778;28;20161;-53
2021/12/05 05:43:23;;;;;;;16.73;7.83;;;;;;;;;;2064061;28;20185;-52
2021/12/05 05:49:34;;;;;;;17.23;7.90;;;;;;;;;;2071158;28;20194;-52
2021/12/05 05:50:11;;;;;;;12.07;8.40;;;;;;;;;;2061248;28;20272;-55
2021/12/05 05:51:11;;;;;;;15.70;7.87;;;;;;;;;;2073943;28;20176;-52
2021/12/05 05:52:12;;;;;;;15.47;7.77;;;;;;;;;;2068717;28;20537;-54
2021/12/05 05:53:13;;;;;;;18.60;7.73;;;;;;;;;;2073835;28;20591;-51
2021/12/05 05:54:13;;;;;;;10.83;7.87;;;;;;;;;;2067482;28;20228;-52
2021/12/05 05:55:14;;;;;;;10.80;7.77;;;;;;;;;;2066484;28;20642;-54
2021/12/05 05:56:19;;;;;;;12.00;8.17;;;;;;;;;;2064690;28;20269;-51
2021/12/05 05:58:41;;;;;;;13.93;8.63;;;;;;;;;;2068071;28;20189;-51
2021/12/05 05:59:56;;;;;;;14.47;8.07;;;;;;;;;;2073712;28;20256;-52
2021/12/05 06:01:03;;;;;;;15.47;8.20;;;;;;;;;;2075825;28;20180;-55
2021/12/05 06:03:22;;;;;;;10.93;7.83;;;;;;;;;;2057745;28;20159;-52
2021/12/05 06:04:22;;;;;;;19.50;8.47;;;;;;;;;;2067497;28;20168;-52
2021/12/05 06:05:23;;;;;;;16.03;8.00;;;;;;;;;;2071198;28;20176;-52
2021/12/05 06:06:25;;;;;;;16.03;7.93;;;;;;;;;;2066796;28;20241;-52
2021/12/05 06:07:26;;;;;;;15.07;8.37;;;;;;;;;;2072537;28;20173;-52
2021/12/05 06:08:27;;;;;;;12.47;8.10;;;;;;;;;;2069780;28;20630;-52
2021/12/05 06:09:27;;;;;;;16.60;8.33;;;;;;;;;;2073151;28;20188;-51
2021/12/05 06:10:29;;;;;;;11.90;7.93;;;;;;;;;;2064888;28;20731;-51
2021/12/05 06:11:29;;;;;;;13.73;8.07;;;;;;;;;;2064641;28;20178;-51
2021/12/05 06:12:29;;;;;;;13.53;7.37;;;;;;;;;;2074073;28;20177;-51
2021/12/05 06:13:30;;;;;;;17.30;8.03;;;;;;;;;;2073284;28;20566;-55
2021/12/05 06:14:30;;;;;;;13.93;7.37;;;;;;;;;;2076504;28;20173;-56
2021/12/05 06:15:31;;;;;;;12.80;7.63;;;;;;;;;;2075389;28;20177;-55
2021/12/05 06:16:32;;;;;;;13.27;8.90;;;;;;;;;;2065835;28;20167;-54
2021/12/05 06:17:33;;;;;;;11.70;8.33;;;;;;;;;;2059591;28;20195;-56
2021/12/05 06:18:34;;;;;;;13.33;8.40;;;;;;;;;;2064464;28;20170;-56
2021/12/05 06:19:36;;;;;;;12.30;8.27;;;;;;;;;;2062191;28;20171;-54
2021/12/05 06:20:40;;;;;;;12.87;7.90;;;;;;;;;;2057819;28;20188;-56
2021/12/05 06:21:41;;;;;;;14.83;7.70;;;;;;;;;;2064913;28;20166;-53
2021/12/05 06:22:41;;;;;;;10.80;7.23;;;;;;;;;;2065464;28;20654;-57
2021/12/05 06:23:43;;;;;;;16.23;7.17;;;;;;;;;;2057789;28;20289;-53
2021/12/05 06:24:43;;;;;;;10.17;7.03;;;;;;;;;;2060328;28;20175;-51
2021/12/05 06:25:45;;;;;;;13.17;6.90;;;;;;;;;;2072494;28;20181;-52
2021/12/05 06:26:45;;;;;;;11.03;6.40;;;;;;;;;;2072868;28;20172;-57
2021/12/05 06:27:46;;;;;;;15.53;6.73;;;;;;;;;;2072085;28;20291;-52
2021/12/05 06:28:56;;;;;;;10.47;5.80;;;;;;;;;;2072179;28;20226;-52
2021/12/05 06:30:08;;;;;;;16.23;6.60;;;;;;;;;;2070906;28;20162;-55
2021/12/05 06:39:59;;;;;;;9.97;5.53;;;;;;;;;;2070192;28;20169;-51
2021/12/05 06:42:49;;;;;;;9.73;5.50;;;;;;;;;;2066846;28;20185;-52
2021/12/05 06:46:01;;;;;;;10.03;5.70;;;;;;;;;;2070934;28;20642;-54
2021/12/05 06:47:03;;;;;;;9.63;5.27;;;;;;;;;;2063676;28;20178;-54
2021/12/05 06:48:03;;;;;;;8.47;4.97;;;;;;;;;;2063758;28;20209;-55
2021/12/05 06:49:04;;;;;;;11.80;5.17;;;;;;;;;;2072960;28;20267;-51
2021/12/05 06:50:04;;;;;;;15.17;5.17;;;;;;;;;;2071782;28;20181;-52
2021/12/05 06:51:04;;;;;;;10.63;5.07;;;;;;;;;;2072918;28;20604;-55
2021/12/05 06:52:07;;;;;;;6.30;5.03;;;;;;;;;;2072868;28;20230;-54
2021/12/05 06:53:07;;;;;;;7.83;5.20;;;;;;;;;;2071451;28;20178;-55
2021/12/05 06:54:08;;;;;;;11.83;5.90;;;;;;;;;;2072647;28;20215;-51
2021/12/05 06:55:08;;;;;;;10.40;5.23;;;;;;;;;;2069289;28;20197;-56
2021/12/05 06:56:09;;;;;;;11.63;5.00;;;;;;;;;;2072789;28;20514;-56
2021/12/05 06:57:09;;;;;;;8.97;4.70;;;;;;;;;;2072464;28;20213;-54
2021/12/05 06:58:10;;;;;;;10.73;5.03;;;;;;;;;;2070713;28;20184;-54
2021/12/05 06:59:10;;;;;;;8.33;4.73;;;;;;;;;;2072577;28;20168;-52
2021/12/05 07:00:13;;;;;;;6.30;4.80;;;;;;;;;;2069650;28;20801;-52
2021/12/05 07:01:14;;;;;;;12.23;4.93;;;;;;;;;;2072622;28;20267;-56
2021/12/05 07:02:15;;;;;;;9.83;5.03;;;;;;;;;;2070020;28;20642;-54
2021/12/05 07:03:15;;;;;;;12.40;4.70;;;;;;;;;;2072234;28;20180;-53
2021/12/05 07:05:44;;;;;;;9.23;5.13;;;;;;;;;;2072756;28;20181;-55
2021/12/05 07:06:44;;;;;;;6.87;4.20;;;;;;;;;;2070099;28;20176;-55
2021/12/05 07:07:44;;;;;;;11.07;5.03;;;;;;;;;;2062961;28;20296;-56
2021/12/05 07:08:45;;;;;;;8.53;4.53;;;;;;;;;;2064089;28;20174;-52
2021/12/05 07:09:46;;;;;;;10.57;4.97;;;;;;;;;;2071864;28;20169;-53
2021/12/05 07:10:56;;;;;;;9.27;4.50;;;;;;;;;;2072505;28;20184;-54
2021/12/05 07:12:39;;;;;;;15.50;5.00;;;;;;;;;;2069164;28;20181;-55
2021/12/05 07:14:56;;;;;;;6.50;4.67;;;;;;;;;;2061027;28;20194;-54
2021/12/05 07:16:03;;;;;;;8.53;4.50;;;;;;;;;;2067631;28;20223;-51
2021/12/05 07:19:41;;;;;;;11.50;3.87;;;;;;;;;;2071951;28;20176;-54
2021/12/05 07:21:16;;;;;;;10.10;4.63;;;;;;;;;;2072722;28;20173;-52
2021/12/05 07:22:26;;;;;;;12.20;4.47;;;;;;;;;;2071961;28;20223;-50
2021/12/05 07:24:48;;;;;;;13.40;4.67;;;;;;;;;;2068988;28;20276;-51
2021/12/05 07:26:05;;;;;;;10.53;4.50;;;;;;;;;;2072531;28;20711;-56
2021/12/05 07:42:24;;;;;;;10.03;4.70;;;;;;;;;;2073503;28;20660;-50
2021/12/05 07:43:25;;;;;;;13.43;5.07;;;;;;;;;;2074384;28;20197;-51
2021/12/05 07:44:25;;;;;;;9.00;4.70;;;;;;;;;;2070279;28;20264;-57
2021/12/05 07:45:45;;;;;;;9.80;4.83;;;;;;;;;;2073623;28;20188;-56
2021/12/05 07:46:46;;;;;;;12.77;5.77;;;;;;;;;;2073960;28;20645;-53
2021/12/05 07:47:50;;;;;;;8.70;4.70;;;;;;;;;;2071217;28;20241;-53
2021/12/05 07:48:51;;;;;;;7.87;4.83;;;;;;;;;;2065029;28;20178;-53
2021/12/05 07:49:53;;;;;;;11.70;5.37;;;;;;;;;;2056319;28;20194;-53
2021/12/05 07:51:10;;;;;;;9.97;4.63;;;;;;;;;;2064375;28;20190;-52
2021/12/05 07:52:15;;;;;;;8.73;4.80;;;;;;;;;;2072908;28;20231;-52
2021/12/05 07:53:23;;;;;;;11.47;5.07;;;;;;;;;;2073410;28;20546;-59
2021/12/05 07:55:34;;;;;;;8.40;4.67;;;;;;;;;;2069952;28;20819;-52
2021/12/05 07:56:50;;;;;;;6.93;4.63;;;;;;;;;;2064953;28;20195;-50
2021/12/05 07:58:26;;;;;;;11.53;4.63;;;;;;;;;;2064647;28;20639;-51
2021/12/05 08:00:48;;;;;;;9.67;5.17;;;;;;;;;;2063439;28;20213;-53
2021/12/05 08:15:10;;;;;;;12.23;6.53;;;;;;;;;;2073206;28;20523;-57
2021/12/05 08:16:15;;;;;;;7.77;5.80;;;;;;;;;;2072448;28;20191;-53
2021/12/05 08:17:19;;;;;;;9.53;6.10;;;;;;;;;;2067344;28;20196;-55
2021/12/05 08:18:19;;;;;;;7.93;5.90;;;;;;;;;;2067472;28;20233;-55
2021/12/05 08:19:19;;;;;;;7.97;5.80;;;;;;;;;;2073001;28;20212;-54
2021/12/05 08:20:22;;;;;;;9.17;6.10;;;;;;;;;;2058821;28;20273;-56
2021/12/05 08:21:22;;;;;;;10.23;6.73;;;;;;;;;;2062293;28;20173;-55
2021/12/05 08:22:24;;;;;;;10.80;6.23;;;;;;;;;;2071889;28;20192;-55
2021/12/05 08:23:24;;;;;;;11.60;6.13;;;;;;;;;;2073448;28;20209;-56
2021/12/05 08:24:25;;;;;;;7.13;5.70;;;;;;;;;;2062397;28;20685;-52
2021/12/05 08:25:28;;;;;;;12.47;6.40;;;;;;;;;;2061661;28;20187;-50
2021/12/05 08:26:33;;;;;;;8.93;5.93;;;;;;;;;;2069721;28;20244;-53
2021/12/05 08:27:33;;;;;;;12.57;6.77;;;;;;;;;;2072275;28;20204;-55
2021/12/05 08:28:56;;;;;;;10.63;6.67;;;;;;;;;;2072902;28;20653;-54
2021/12/05 08:30:05;;;;;;;9.77;5.73;;;;;;;;;;2068399;28;20185;-56
2021/12/05 08:31:16;;;;;;;9.20;5.70;;;;;;;;;;2069397;28;20181;-52
2021/12/05 08:32:30;;;;;;;9.03;5.27;;;;;;;;;;2070186;28;20193;-54
2021/12/05 08:33:52;;;;;;;11.23;5.63;;;;;;;;;;2072736;28;20204;-56
2021/12/05 08:35:11;;;;;;;9.63;5.47;;;;;;;;;;2066783;28;20189;-60
2021/12/05 08:40:34;;;;;;;14.47;5.83;;;;;;;;;;2046643;29;20191;-57
2021/12/05 09:23:59;;;;;;;10.30;5.47;;;;;;;;;;2071120;28;20246;-55
2021/12/05 09:25:19;;;;;;;8.50;5.47;;;;;;;;;;2072530;28;20563;-57
2021/12/05 09:26:47;;;;;;;8.73;5.67;;;;;;;;;;2074588;28;20256;-53
2021/12/05 09:40:07;;;;;;;11.25;4.50;;;;;;;;;;2073700;28;20168;-57
2021/12/05 10:01:54;;;;;;;6.53;4.15;;;;;;;;;;2072707;28;20165;-53
2021/12/05 10:02:50;;;;;;;7.60;4.70;;;;;;;;;;2075443;28;20181;-56
2021/12/05 10:08:04;;;;;;;10.00;3.88;;;;;;;;;;2071493;28;20181;-55
2021/12/05 10:09:21;;;;;;;5.80;3.88;;;;;;;;;;2071241;28;20173;-55
2021/12/05 10:12:07;;;;;;;7.18;3.88;;;;;;;;;;2055332;28;20678;-56
2021/12/05 10:13:22;;;;;;;12.00;4.50;;;;;;;;;;2071346;28;20723;-52
2021/12/05 10:26:31;;;;;;;5.13;3.20;;;;;;;;;;2072023;28;20181;-54
2021/12/05 10:37:04;;;;;;;8.88;5.20;;;;;;;;;;2075401;28;20291;-57
2021/12/05 10:38:10;;;;;;;10.68;4.60;;;;;;;;;;2074535;28;20283;-55
2021/12/05 10:39:19;;;;;;;4.68;3.20;;;;;;;;;;2073411;28;20200;-55
2021/12/05 10:40:32;;;;;;;7.47;5.00;;;;;;;;;;2072792;28;20189;-53
2021/12/05 10:42:44;;;;;;;10.45;3.90;;;;;;;;;;2071514;28;20188;-55
2021/12/05 10:43:46;;;;;;;8.70;4.00;;;;;;;;;;2073187;28;20198;-55
2021/12/05 10:44:47;;;;;;;10.60;3.80;;;;;;;;;;2072941;28;20219;-54
2021/12/05 10:45:49;;;;;;;5.65;3.65;;;;;;;;;;2073577;28;20173;-58
2021/12/05 10:46:50;;;;;;;4.45;3.17;;;;;;;;;;2073575;28;20680;-55
2021/12/05 10:47:52;;;;;;;7.20;3.45;;;;;;;;;;2073355;28;20273;-55
2021/12/05 10:48:54;;;;;;;6.82;3.60;;;;;;;;;;2064422;28;20655;-54
2021/12/05 10:49:54;;;;;;;7.32;3.55;;;;;;;;;;2055047;28;20173;-53
2021/12/05 10:50:59;;;;;;;5.75;3.88;;;;;;;;;;2062476;28;20193;-49
2021/12/05 10:52:01;;;;;;;7.53;3.80;;;;;;;;;;2062739;28;20208;-51
2021/12/05 10:53:19;;;;;;;7.57;3.88;;;;;;;;;;2064785;28;20179;-62
2021/12/05 10:54:21;;;;;;;7.60;3.63;;;;;;;;;;2072787;28;20256;-54
2021/12/05 10:55:28;;;;;;;7.65;3.50;;;;;;;;;;2069809;28;20190;-56
2021/12/05 10:56:36;;;;;;;9.65;3.40;;;;;;;;;;2073447;28;20716;-54
2021/12/05 10:57:41;;;;;;;5.75;3.08;;;;;;;;;;2060354;28;20198;-56
2021/12/05 10:59:07;;;;;;;5.93;3.20;;;;;;;;;;2065641;28;20170;-52
2021/12/05 11:00:11;;;;;;;6.75;3.72;;;;;;;;;;2068030;28;20193;-51
2021/12/05 11:01:17;;;;;;;7.10;3.00;;;;;;;;;;2070254;28;20189;-54
2021/12/05 11:02:24;;;;;;;11.93;4.50;;;;;;;;;;2071991;28;20617;-53
2021/12/05 11:03:24;;;;;;;8.05;3.88;;;;;;;;;;2073582;28;20182;-50
2021/12/05 11:04:35;;;;;;;6.05;3.80;;;;;;;;;;2064347;28;20253;-51
2021/12/05 11:05:37;;;;;;;4.72;2.70;;;;;;;;;;2066011;28;20202;-50
2021/12/05 11:06:39;;;;;;;6.07;3.00;;;;;;;;;;2063153;28;20177;-56
2021/12/05 11:07:40;;;;;;;3.85;3.30;;;;;;;;;;2063376;28;20194;-58
2021/12/05 11:08:40;;;;;;;9.05;4.35;;;;;;;;;;2069423;28;20260;-57
2021/12/05 11:09:42;;;;;;;6.43;3.42;;;;;;;;;;2071465;28;20649;-51
2021/12/05 11:10:43;;;;;;;7.85;3.50;;;;;;;;;;2072122;28;20221;-54
2021/12/05 11:11:45;;;;;;;9.23;4.88;;;;;;;;;;2073953;28;20174;-53
2021/12/05 11:12:45;;;;;;;8.43;4.55;;;;;;;;;;2071776;28;20181;-54
2021/12/05 11:13:46;;;;;;;6.25;3.42;;;;;;;;;;2065835;28;20205;-54
2021/12/05 11:14:51;;;;;;;6.82;4.07;;;;;;;;;;2063934;28;20184;-54
2021/12/05 11:15:51;;;;;;;6.60;3.45;;;;;;;;;;2064405;28;20261;-54
2021/12/05 11:17:03;;;;;;;6.95;4.07;;;;;;;;;;2073516;28;20184;-51
2021/12/05 11:18:03;;;;;;;4.57;3.35;;;;;;;;;;2072564;28;20189;-53
2021/12/05 11:19:09;;;;;;;9.00;3.50;;;;;;;;;;2065005;28;20284;-55
2021/12/05 11:20:13;;;;;;;8.45;3.20;;;;;;;;;;2062861;28;20186;-56